• Join FlightAware (Why Join?)
  • Login
  • US Flag 
04:23PM EDT


 

Airport Tracker/Info


-or-


 

Live Flight TrackerFlight Track Log ✈ UAL582 ✈ 05-May-2013 ✈ CYYZ - KORD

Flight Track Log - Related Links

Times and Time Zones

All times are in EDT time to prevent confusion due to time zone crossing. See the UAL582 flight status page for this flight to view local times or setup timezone preferences in your user account.

Time Position Orientation Groundspeed Altitude Reporting Facility
EDT Latitude Longitude Course Direction KTS MPH feet Rate Location/Type
05:08PM 43.6500 -79.6500 270° West 160 184 2,000  Level Toronto Center
05:09PM 43.6167 -79.7500 245° Southwest 240 276 4,200 2,460 Climbing Toronto Center
05:10PM 43.6500 -79.8333 299° West 280 322 7,000 2,040 Climbing Toronto Center
05:11PM 43.7117 -80.1065 277° West  Level FlightAware Approximate
05:11PM 43.6833 -79.9333 295° West 280 322 8,300  Level Toronto Center
05:12PM 43.7179 -80.2302 277° West  Level FlightAware Approximate
05:12PM 43.7000 -80.0500 281° West 290 334 11,100  Level Toronto Center
05:13PM 43.7291 -80.3534 277° West  Level FlightAware Approximate
05:13PM 43.6833 -80.1833 260° West 340 391 13,300  Level Toronto Center
05:14PM 43.7334 -80.4773 270° West  Level FlightAware Approximate
05:15PM 43.6389 -80.3555 255° West  Level FlightAware Approximate
05:15PM 43.6333 -80.4667 255° West 380 437 17,900  Level Toronto Center
05:16PM 43.6000 -80.6000 251° West 400 460 20,300 2,280 Climbing Toronto Center
05:17PM 43.5833 -80.7667 262° West 410 472 22,500 1,920 Climbing Toronto Center
05:18PM 43.5333 -80.9167 245° Southwest 420 483 24,200 1,800 Climbing Toronto Center
05:19PM 43.5000 -81.0833 255° West 430 495 26,100 1,740 Climbing Toronto Center
05:20PM 43.4667 -81.2333 253° West 430 495 27,700 1,800 Climbing Toronto Center
05:21PM 43.4500 -81.4000 262° West 440 506 29,800 2,100 Climbing Toronto Center
05:22PM 43.4167 -81.5333 251° West 420 483 31,900 1,680 Climbing Toronto Center
05:23PM 43.3833 -81.7167 256° West 420 483 33,200 1,020 Climbing Toronto Center
05:24PM 43.3667 -81.8500 260° West 420 483 34,000 960 Climbing Toronto Center
05:25PM 43.3167 -82.0167 248° West 430 495 35,200 960 Climbing Toronto Center
05:26PM 43.2833 -82.1833 255° West 430 495 36,000 360 Climbing Toronto Center
05:27PM 43.2500 -82.3333 253° West 440 506 36,000  Level Toronto Center
05:28PM 43.2333 -82.5000 262° West 440 506 36,000  Level Toronto Center
05:29PM 43.1833 -82.6500 245° Southwest 440 506 36,000 -540 Level Toronto Center
05:30PM 43.1500 -82.8333 256° West 440 506 35,000 -1,020 Descending Toronto Center
05:31PM 43.1167 -82.9833 253° West 440 506 34,000 -960 Descending Toronto Center
05:32PM 43.0989 -83.1336 261° West 443 510 33,200 -960 Descending Cleveland Center
05:33PM 43.0661 -83.2944 254° West 438 504 32,200 -600 Descending Cleveland Center
05:34PM 43.0289 -83.4575 253° West 438 504 32,000 -420 Descending Cleveland Center
05:35PM 42.9933 -83.6206 253° West 444 511 31,400 -840 Descending Cleveland Center
05:36PM 42.9619 -83.7806 255° West 444 511 30,400 -720 Descending Cleveland Center
05:37PM 42.9447 -83.9472 262° West 444 511 30,000 -240 Descending Cleveland Center
05:38PM 42.9292 -84.1194 263° West 454 522 30,000  Level Cleveland Center
05:39PM 42.9114 -84.2856 262° West 454 522 30,000 -480 Level Cleveland Center
05:40PM 42.8967 -84.4533 263° West 447 514 29,100 -1,020 Descending Chicago Center
05:41PM 42.8803 -84.6253 263° West 456 525 28,000 -540 Descending Chicago Center
05:42PM 42.8617 -84.8017 262° West 468 539 28,000  Level Chicago Center
05:43PM 42.8428 -84.9764 262° West 468 539 28,000  Level Chicago Center
05:44PM 42.8244 -85.1511 262° West 466 536 28,000 -60 Level Chicago Center
05:45PM 42.8056 -85.3231 262° West 460 529 27,900 -1,020 Descending Chicago Center
05:46PM 42.7822 -85.5222 261° West 445 512 26,000 -1,800 Descending Chicago Center
05:47PM 42.7528 -85.6808 256° West 436 502 24,200 -1,800 Descending Chicago Center
05:48PM 42.7244 -85.8375 256° West 426 490 22,300 -1,800 Descending Chicago Center
05:49PM 42.6967 -85.9922 256° West 421 484 20,500 -1,140 Descending Chicago Center
05:50PM 42.6692 -86.1419 256° West 411 473 20,000 -300 Descending Chicago Center
05:52PM 42.6419 -86.2919 256° West 408 470 20,000 -120 Level Chicago Center
05:53PM 42.6128 -86.4400 255° West 406 467 19,800 -1,080 Descending Chicago Center
05:54PM 42.5858 -86.5872 256° West 402 463 17,800 -2,160 Descending Chicago Center
05:55PM 42.5533 -86.7583 256° West 390 449 15,400 -2,220 Descending Chicago Center
05:56PM 42.5167 -86.8886 249° West 373 429 13,300 -2,040 Descending Chicago Center
05:57PM 42.4825 -87.0153 250° West 361 415 11,300 -1,620 Descending Chicago Center
05:58PM 42.4478 -87.1342 248° West 345 397 10,000 -600 Descending Chicago Center
05:59PM 42.4150 -87.2556 250° West 344 396 10,100  Climbing Chicago Center
06:00PM 42.3767 -87.3981 250° West 353 406 10,000 -60 Descending Chicago Center
06:01PM 42.3408 -87.5217 249° West 355 409 10,000  Level Chicago Center
06:02PM 42.2700 -87.6072 222° Southwest 345 397 10,000 -60 Level Chicago Center
06:03PM 42.1944 -87.6869 218° Southwest 345 397 9,900  Descending Chicago Center
06:04PM 42.1008 -87.7700 213° Southwest 341 392 10,000 -540 Climbing Chicago Center
06:05PM 42.0167 -87.8167 202° Southwest 291 335 8,800 -1,260 Descending Chicago TRACON
06:06PM 41.9333 -87.8500 197° South 296 341 7,300 -900 Descending Chicago TRACON
06:07PM 41.8833 -87.8833 206° Southwest 245 282 7,100 -480 Descending Chicago TRACON
06:08PM 41.8333 -87.9333 217° Southwest 195 224 6,400 -1,260 Descending Chicago TRACON
06:09PM 41.8000 -87.9833 228° Southwest 212 244 4,600 -1,500 Descending Chicago TRACON
06:10PM 41.8500 -88.0333 323° Northwest 204 235 3,500 -900 Descending Chicago TRACON
06:11PM 41.8667 -88.0000 56° Northeast 164 189 2,900 -720 Descending Chicago TRACON